sensor_id;sensor_type;location;lat;lon;timestamp;P1;durP1;ratioP1;P2;durP2;ratioP2
75854;SDS011;64502;59.976;30.316;2023-02-20T00:02:50;10.70;;;2.47;;
75854;SDS011;64502;59.976;30.316;2023-02-20T00:05:17;7.03;;;2.78;;
75854;SDS011;64502;59.976;30.316;2023-02-20T00:07:43;5.78;;;2.38;;
75854;SDS011;64502;59.976;30.316;2023-02-20T00:10:08;7.85;;;2.67;;
75854;SDS011;64502;59.976;30.316;2023-02-20T00:12:35;5.63;;;2.08;;
75854;SDS011;64502;59.976;30.316;2023-02-20T00:15:00;6.03;;;2.65;;
75854;SDS011;64502;59.976;30.316;2023-02-20T00:17:26;5.53;;;1.80;;
75854;SDS011;64502;59.976;30.316;2023-02-20T00:19:53;5.90;;;1.95;;
75854;SDS011;64502;59.976;30.316;2023-02-20T00:22:22;8.18;;;3.50;;
75854;SDS011;64502;59.976;30.316;2023-02-20T00:24:49;6.43;;;2.63;;
75854;SDS011;64502;59.976;30.316;2023-02-20T00:27:14;6.80;;;3.50;;
75854;SDS011;64502;59.976;30.316;2023-02-20T00:29:40;6.38;;;2.42;;
75854;SDS011;64502;59.976;30.316;2023-02-20T00:32:05;5.97;;;2.80;;
75854;SDS011;64502;59.976;30.316;2023-02-20T00:34:31;7.85;;;2.40;;
75854;SDS011;64502;59.976;30.316;2023-02-20T00:36:56;6.97;;;2.63;;
75854;SDS011;64502;59.976;30.316;2023-02-20T00:39:22;8.40;;;2.85;;
75854;SDS011;64502;59.976;30.316;2023-02-20T00:41:47;8.77;;;2.80;;
75854;SDS011;64502;59.976;30.316;2023-02-20T00:44:14;6.70;;;2.33;;
75854;SDS011;64502;59.976;30.316;2023-02-20T00:46:39;6.93;;;2.47;;
75854;SDS011;64502;59.976;30.316;2023-02-20T00:49:05;5.93;;;2.70;;
75854;SDS011;64502;59.976;30.316;2023-02-20T00:51:31;6.85;;;2.60;;
75854;SDS011;64502;59.976;30.316;2023-02-20T00:53:57;6.78;;;2.88;;
75854;SDS011;64502;59.976;30.316;2023-02-20T00:56:24;6.65;;;2.88;;
75854;SDS011;64502;59.976;30.316;2023-02-20T00:58:49;8.88;;;3.10;;
75854;SDS011;64502;59.976;30.316;2023-02-20T01:01:15;10.18;;;3.13;;
75854;SDS011;64502;59.976;30.316;2023-02-20T01:03:41;10.70;;;3.67;;
75854;SDS011;64502;59.976;30.316;2023-02-20T01:06:07;7.40;;;2.22;;
75854;SDS011;64502;59.976;30.316;2023-02-20T01:08:32;8.95;;;3.25;;
75854;SDS011;64502;59.976;30.316;2023-02-20T01:10:58;6.97;;;2.78;;
75854;SDS011;64502;59.976;30.316;2023-02-20T01:13:24;9.30;;;2.67;;
75854;SDS011;64502;59.976;30.316;2023-02-20T01:15:49;9.55;;;2.85;;
75854;SDS011;64502;59.976;30.316;2023-02-20T01:18:15;6.45;;;2.25;;
75854;SDS011;64502;59.976;30.316;2023-02-20T01:20:41;4.75;;;1.95;;
75854;SDS011;64502;59.976;30.316;2023-02-20T01:23:06;7.97;;;3.40;;
75854;SDS011;64502;59.976;30.316;2023-02-20T01:25:32;7.22;;;2.78;;
75854;SDS011;64502;59.976;30.316;2023-02-20T01:27:57;7.53;;;2.50;;
75854;SDS011;64502;59.976;30.316;2023-02-20T01:30:23;8.10;;;3.40;;
75854;SDS011;64502;59.976;30.316;2023-02-20T01:32:48;8.70;;;2.60;;
75854;SDS011;64502;59.976;30.316;2023-02-20T01:35:14;7.03;;;3.00;;
75854;SDS011;64502;59.976;30.316;2023-02-20T01:37:40;7.35;;;3.22;;
75854;SDS011;64502;59.976;30.316;2023-02-20T01:40:05;8.02;;;3.25;;
75854;SDS011;64502;59.976;30.316;2023-02-20T01:42:32;8.75;;;2.72;;
75854;SDS011;64502;59.976;30.316;2023-02-20T01:45:14;9.35;;;3.50;;
75854;SDS011;64502;59.976;30.316;2023-02-20T01:47:46;7.47;;;2.63;;
75854;SDS011;64502;59.976;30.316;2023-02-20T01:50:13;7.65;;;3.88;;
75854;SDS011;64502;59.976;30.316;2023-02-20T01:52:40;5.97;;;2.65;;
75854;SDS011;64502;59.976;30.316;2023-02-20T01:55:12;6.97;;;2.55;;
75854;SDS011;64502;59.976;30.316;2023-02-20T01:57:43;7.70;;;2.75;;
75854;SDS011;64502;59.976;30.316;2023-02-20T02:00:15;8.57;;;3.40;;
75854;SDS011;64502;59.976;30.316;2023-02-20T02:02:48;6.75;;;2.78;;
75854;SDS011;64502;59.976;30.316;2023-02-20T02:05:18;10.48;;;3.30;;
75854;SDS011;64502;59.976;30.316;2023-02-20T02:07:45;6.90;;;3.00;;
75854;SDS011;64502;59.976;30.316;2023-02-20T02:10:12;7.00;;;2.78;;
75854;SDS011;64502;59.976;30.316;2023-02-20T02:12:40;6.93;;;2.30;;
75854;SDS011;64502;59.976;30.316;2023-02-20T02:15:17;7.20;;;2.45;;
75854;SDS011;64502;59.976;30.316;2023-02-20T02:20:32;6.57;;;2.58;;
75854;SDS011;64502;59.976;30.316;2023-02-20T02:37:26;11.82;;;4.18;;
75854;SDS011;64502;59.976;30.316;2023-02-20T02:42:59;11.95;;;4.18;;
75854;SDS011;64502;59.976;30.316;2023-02-20T02:48:21;7.07;;;2.67;;
75854;SDS011;64502;59.976;30.316;2023-02-20T02:50:53;10.18;;;3.35;;
75854;SDS011;64502;59.976;30.316;2023-02-20T02:53:23;8.75;;;3.22;;
75854;SDS011;64502;59.976;30.316;2023-02-20T02:55:48;6.78;;;2.85;;
75854;SDS011;64502;59.976;30.316;2023-02-20T02:58:14;8.05;;;4.15;;
75854;SDS011;64502;59.976;30.316;2023-02-20T03:03:10;6.55;;;2.75;;
75854;SDS011;64502;59.976;30.316;2023-02-20T03:11:18;9.13;;;2.45;;
75854;SDS011;64502;59.976;30.316;2023-02-20T03:13:51;12.43;;;3.75;;
75854;SDS011;64502;59.976;30.316;2023-02-20T03:16:49;8.10;;;2.63;;
75854;SDS011;64502;59.976;30.316;2023-02-20T03:20:02;7.82;;;2.72;;
75854;SDS011;64502;59.976;30.316;2023-02-20T03:22:33;9.23;;;3.22;;
75854;SDS011;64502;59.976;30.316;2023-02-20T03:25:00;10.00;;;2.88;;
75854;SDS011;64502;59.976;30.316;2023-02-20T03:27:39;8.63;;;3.35;;
75854;SDS011;64502;59.976;30.316;2023-02-20T03:30:30;9.50;;;3.80;;
75854;SDS011;64502;59.976;30.316;2023-02-20T03:33:06;8.95;;;3.63;;
75854;SDS011;64502;59.976;30.316;2023-02-20T03:35:58;7.03;;;3.13;;
75854;SDS011;64502;59.976;30.316;2023-02-20T03:38:46;8.65;;;2.97;;
75854;SDS011;64502;59.976;30.316;2023-02-20T03:41:35;6.85;;;2.75;;
75854;SDS011;64502;59.976;30.316;2023-02-20T03:44:23;10.88;;;3.58;;
75854;SDS011;64502;59.976;30.316;2023-02-20T03:46:50;10.05;;;3.30;;
75854;SDS011;64502;59.976;30.316;2023-02-20T03:49:20;10.55;;;2.80;;
75854;SDS011;64502;59.976;30.316;2023-02-20T03:51:51;6.43;;;2.78;;
75854;SDS011;64502;59.976;30.316;2023-02-20T03:54:24;11.30;;;3.20;;
75854;SDS011;64502;59.976;30.316;2023-02-20T03:56:53;9.00;;;3.42;;
75854;SDS011;64502;59.976;30.316;2023-02-20T04:02:36;11.57;;;3.42;;
75854;SDS011;64502;59.976;30.316;2023-02-20T04:05:11;8.35;;;3.13;;
75854;SDS011;64502;59.976;30.316;2023-02-20T04:07:41;11.57;;;3.75;;
75854;SDS011;64502;59.976;30.316;2023-02-20T04:10:22;10.68;;;3.55;;
75854;SDS011;64502;59.976;30.316;2023-02-20T04:12:51;9.50;;;3.78;;
75854;SDS011;64502;59.976;30.316;2023-02-20T04:15:18;8.55;;;2.75;;
75854;SDS011;64502;59.976;30.316;2023-02-20T04:17:47;7.88;;;3.22;;
75854;SDS011;64502;59.976;30.316;2023-02-20T04:20:16;9.43;;;3.58;;
75854;SDS011;64502;59.976;30.316;2023-02-20T04:22:44;8.00;;;3.55;;
75854;SDS011;64502;59.976;30.316;2023-02-20T04:27:47;11.35;;;4.45;;
75854;SDS011;64502;59.976;30.316;2023-02-20T04:30:13;12.75;;;3.38;;
75854;SDS011;64502;59.976;30.316;2023-02-20T04:32:38;11.05;;;3.92;;
75854;SDS011;64502;59.976;30.316;2023-02-20T04:35:04;12.63;;;4.03;;
75854;SDS011;64502;59.976;30.316;2023-02-20T04:37:30;9.85;;;3.55;;
75854;SDS011;64502;59.976;30.316;2023-02-20T04:39:55;11.75;;;4.10;;
75854;SDS011;64502;59.976;30.316;2023-02-20T04:42:21;8.00;;;3.38;;
75854;SDS011;64502;59.976;30.316;2023-02-20T04:44:46;10.00;;;3.67;;
75854;SDS011;64502;59.976;30.316;2023-02-20T04:47:13;11.40;;;3.60;;
75854;SDS011;64502;59.976;30.316;2023-02-20T04:49:40;8.82;;;2.90;;
75854;SDS011;64502;59.976;30.316;2023-02-20T04:52:05;10.98;;;3.85;;
75854;SDS011;64502;59.976;30.316;2023-02-20T04:54:31;8.95;;;3.42;;
75854;SDS011;64502;59.976;30.316;2023-02-20T04:56:56;10.02;;;3.75;;
75854;SDS011;64502;59.976;30.316;2023-02-20T04:59:21;12.60;;;4.28;;
75854;SDS011;64502;59.976;30.316;2023-02-20T05:01:47;9.85;;;3.50;;
75854;SDS011;64502;59.976;30.316;2023-02-20T05:04:16;8.98;;;3.22;;
75854;SDS011;64502;59.976;30.316;2023-02-20T05:06:46;8.20;;;3.50;;
75854;SDS011;64502;59.976;30.316;2023-02-20T05:09:14;10.82;;;4.20;;
75854;SDS011;64502;59.976;30.316;2023-02-20T05:11:39;13.52;;;4.63;;
75854;SDS011;64502;59.976;30.316;2023-02-20T05:14:05;8.73;;;3.40;;
75854;SDS011;64502;59.976;30.316;2023-02-20T05:16:31;10.48;;;4.15;;
75854;SDS011;64502;59.976;30.316;2023-02-20T05:18:56;10.02;;;3.67;;
75854;SDS011;64502;59.976;30.316;2023-02-20T05:21:24;8.40;;;3.05;;
75854;SDS011;64502;59.976;30.316;2023-02-20T05:24:09;9.68;;;3.63;;
75854;SDS011;64502;59.976;30.316;2023-02-20T05:26:34;8.93;;;3.75;;
75854;SDS011;64502;59.976;30.316;2023-02-20T05:29:01;8.55;;;3.60;;
75854;SDS011;64502;59.976;30.316;2023-02-20T05:31:26;12.73;;;4.50;;
75854;SDS011;64502;59.976;30.316;2023-02-20T05:33:52;9.52;;;4.32;;
75854;SDS011;64502;59.976;30.316;2023-02-20T05:36:17;11.48;;;3.92;;
75854;SDS011;64502;59.976;30.316;2023-02-20T05:38:43;8.55;;;4.00;;
75854;SDS011;64502;59.976;30.316;2023-02-20T05:41:13;12.07;;;4.28;;
75854;SDS011;64502;59.976;30.316;2023-02-20T05:43:42;12.55;;;4.35;;
75854;SDS011;64502;59.976;30.316;2023-02-20T05:46:08;9.52;;;3.92;;
75854;SDS011;64502;59.976;30.316;2023-02-20T05:48:34;16.55;;;4.63;;
75854;SDS011;64502;59.976;30.316;2023-02-20T05:50:59;12.85;;;4.75;;
75854;SDS011;64502;59.976;30.316;2023-02-20T05:53:28;14.68;;;4.32;;
75854;SDS011;64502;59.976;30.316;2023-02-20T05:55:55;10.18;;;4.10;;
75854;SDS011;64502;59.976;30.316;2023-02-20T05:58:20;13.80;;;5.38;;
75854;SDS011;64502;59.976;30.316;2023-02-20T06:00:46;10.50;;;4.60;;
75854;SDS011;64502;59.976;30.316;2023-02-20T06:03:14;10.55;;;3.85;;
75854;SDS011;64502;59.976;30.316;2023-02-20T06:05:41;14.43;;;4.57;;
75854;SDS011;64502;59.976;30.316;2023-02-20T06:08:07;9.60;;;4.07;;
75854;SDS011;64502;59.976;30.316;2023-02-20T06:10:32;9.93;;;3.97;;
75854;SDS011;64502;59.976;30.316;2023-02-20T06:12:58;10.35;;;3.70;;
75854;SDS011;64502;59.976;30.316;2023-02-20T06:15:23;12.52;;;4.50;;
75854;SDS011;64502;59.976;30.316;2023-02-20T06:17:49;11.80;;;5.35;;
75854;SDS011;64502;59.976;30.316;2023-02-20T06:20:14;12.88;;;4.78;;
75854;SDS011;64502;59.976;30.316;2023-02-20T06:22:41;9.95;;;4.65;;
75854;SDS011;64502;59.976;30.316;2023-02-20T06:25:06;15.73;;;4.70;;
75854;SDS011;64502;59.976;30.316;2023-02-20T06:27:32;12.48;;;4.93;;
75854;SDS011;64502;59.976;30.316;2023-02-20T06:29:57;11.02;;;5.18;;
75854;SDS011;64502;59.976;30.316;2023-02-20T06:32:23;8.65;;;3.65;;
75854;SDS011;64502;59.976;30.316;2023-02-20T06:34:49;11.95;;;5.28;;
75854;SDS011;64502;59.976;30.316;2023-02-20T06:37:14;12.75;;;5.35;;
75854;SDS011;64502;59.976;30.316;2023-02-20T06:39:40;10.70;;;5.00;;
75854;SDS011;64502;59.976;30.316;2023-02-20T06:42:09;11.43;;;4.40;;
75854;SDS011;64502;59.976;30.316;2023-02-20T06:44:35;12.13;;;4.43;;
75854;SDS011;64502;59.976;30.316;2023-02-20T06:47:01;12.32;;;4.63;;
75854;SDS011;64502;59.976;30.316;2023-02-20T06:49:27;16.10;;;5.63;;
75854;SDS011;64502;59.976;30.316;2023-02-20T06:51:52;14.77;;;5.45;;
75854;SDS011;64502;59.976;30.316;2023-02-20T06:54:18;14.18;;;5.63;;
75854;SDS011;64502;59.976;30.316;2023-02-20T06:56:46;14.43;;;6.15;;
75854;SDS011;64502;59.976;30.316;2023-02-20T06:59:12;16.70;;;6.75;;
75854;SDS011;64502;59.976;30.316;2023-02-20T07:01:40;14.27;;;5.20;;
75854;SDS011;64502;59.976;30.316;2023-02-20T07:04:08;12.82;;;4.85;;
75854;SDS011;64502;59.976;30.316;2023-02-20T07:06:43;14.98;;;5.00;;
75854;SDS011;64502;59.976;30.316;2023-02-20T07:09:09;13.50;;;4.95;;
75854;SDS011;64502;59.976;30.316;2023-02-20T07:11:34;14.88;;;4.95;;
75854;SDS011;64502;59.976;30.316;2023-02-20T07:14:00;10.43;;;4.00;;
75854;SDS011;64502;59.976;30.316;2023-02-20T07:16:25;11.55;;;4.47;;
75854;SDS011;64502;59.976;30.316;2023-02-20T07:18:50;8.40;;;3.92;;
75854;SDS011;64502;59.976;30.316;2023-02-20T07:21:16;16.00;;;5.55;;
75854;SDS011;64502;59.976;30.316;2023-02-20T07:23:43;12.25;;;4.78;;
75854;SDS011;64502;59.976;30.316;2023-02-20T07:28:44;12.55;;;4.47;;
75854;SDS011;64502;59.976;30.316;2023-02-20T07:31:10;12.68;;;4.35;;
75854;SDS011;64502;59.976;30.316;2023-02-20T07:33:44;16.77;;;4.97;;
75854;SDS011;64502;59.976;30.316;2023-02-20T07:36:10;10.77;;;4.18;;
75854;SDS011;64502;59.976;30.316;2023-02-20T07:38:37;12.73;;;6.35;;
75854;SDS011;64502;59.976;30.316;2023-02-20T07:41:03;12.70;;;4.63;;
75854;SDS011;64502;59.976;30.316;2023-02-20T07:43:29;13.73;;;4.82;;
75854;SDS011;64502;59.976;30.316;2023-02-20T07:45:54;11.55;;;4.68;;
75854;SDS011;64502;59.976;30.316;2023-02-20T07:48:20;16.20;;;5.70;;
75854;SDS011;64502;59.976;30.316;2023-02-20T07:50:46;18.25;;;5.35;;
75854;SDS011;64502;59.976;30.316;2023-02-20T07:53:15;15.05;;;6.50;;
75854;SDS011;64502;59.976;30.316;2023-02-20T07:55:41;12.38;;;4.88;;
75854;SDS011;64502;59.976;30.316;2023-02-20T07:58:07;14.63;;;5.13;;
75854;SDS011;64502;59.976;30.316;2023-02-20T08:00:33;16.13;;;5.85;;
75854;SDS011;64502;59.976;30.316;2023-02-20T08:02:58;13.48;;;5.10;;
75854;SDS011;64502;59.976;30.316;2023-02-20T08:05:24;15.00;;;4.90;;
75854;SDS011;64502;59.976;30.316;2023-02-20T08:07:50;12.77;;;5.43;;
75854;SDS011;64502;59.976;30.316;2023-02-20T08:10:17;16.65;;;5.43;;
75854;SDS011;64502;59.976;30.316;2023-02-20T08:12:46;12.60;;;5.35;;
75854;SDS011;64502;59.976;30.316;2023-02-20T08:15:12;13.50;;;5.80;;
75854;SDS011;64502;59.976;30.316;2023-02-20T08:17:38;11.27;;;5.18;;
75854;SDS011;64502;59.976;30.316;2023-02-20T08:20:05;14.18;;;5.63;;
75854;SDS011;64502;59.976;30.316;2023-02-20T08:22:31;13.18;;;5.45;;
75854;SDS011;64502;59.976;30.316;2023-02-20T08:24:57;13.45;;;5.70;;
75854;SDS011;64502;59.976;30.316;2023-02-20T08:27:24;13.82;;;5.25;;
75854;SDS011;64502;59.976;30.316;2023-02-20T08:29:49;11.88;;;5.25;;
75854;SDS011;64502;59.976;30.316;2023-02-20T08:32:14;15.73;;;6.07;;
75854;SDS011;64502;59.976;30.316;2023-02-20T08:34:40;17.63;;;5.47;;
75854;SDS011;64502;59.976;30.316;2023-02-20T08:37:05;12.48;;;4.90;;
75854;SDS011;64502;59.976;30.316;2023-02-20T08:39:33;14.13;;;5.65;;
75854;SDS011;64502;59.976;30.316;2023-02-20T08:41:59;11.85;;;5.45;;
75854;SDS011;64502;59.976;30.316;2023-02-20T08:44:24;14.07;;;5.80;;
75854;SDS011;64502;59.976;30.316;2023-02-20T08:46:50;15.20;;;5.78;;
75854;SDS011;64502;59.976;30.316;2023-02-20T08:49:16;13.50;;;5.88;;
75854;SDS011;64502;59.976;30.316;2023-02-20T08:51:46;16.02;;;7.00;;
75854;SDS011;64502;59.976;30.316;2023-02-20T08:54:13;16.05;;;6.82;;
75854;SDS011;64502;59.976;30.316;2023-02-20T08:56:43;17.15;;;6.70;;
75854;SDS011;64502;59.976;30.316;2023-02-20T08:59:08;14.85;;;6.13;;
75854;SDS011;64502;59.976;30.316;2023-02-20T09:01:34;12.25;;;5.80;;
75854;SDS011;64502;59.976;30.316;2023-02-20T09:04:00;15.05;;;6.57;;
75854;SDS011;64502;59.976;30.316;2023-02-20T09:06:26;15.65;;;7.20;;
75854;SDS011;64502;59.976;30.316;2023-02-20T09:08:53;15.73;;;7.32;;
75854;SDS011;64502;59.976;30.316;2023-02-20T09:11:19;17.08;;;6.47;;
75854;SDS011;64502;59.976;30.316;2023-02-20T09:13:46;16.15;;;8.15;;
75854;SDS011;64502;59.976;30.316;2023-02-20T09:16:14;15.90;;;6.28;;
75854;SDS011;64502;59.976;30.316;2023-02-20T09:18:43;18.50;;;6.97;;
75854;SDS011;64502;59.976;30.316;2023-02-20T09:21:10;17.83;;;7.63;;
75854;SDS011;64502;59.976;30.316;2023-02-20T09:23:37;15.65;;;7.15;;
75854;SDS011;64502;59.976;30.316;2023-02-20T09:26:03;16.88;;;7.90;;
75854;SDS011;64502;59.976;30.316;2023-02-20T09:28:29;15.82;;;6.55;;
75854;SDS011;64502;59.976;30.316;2023-02-20T09:30:55;14.63;;;7.13;;
75854;SDS011;64502;59.976;30.316;2023-02-20T09:33:21;13.40;;;6.75;;
75854;SDS011;64502;59.976;30.316;2023-02-20T09:35:48;11.60;;;6.00;;
75854;SDS011;64502;59.976;30.316;2023-02-20T09:38:16;18.48;;;6.72;;
75854;SDS011;64502;59.976;30.316;2023-02-20T09:40:42;15.57;;;6.82;;
75854;SDS011;64502;59.976;30.316;2023-02-20T09:43:20;15.45;;;7.05;;
75854;SDS011;64502;59.976;30.316;2023-02-20T09:46:14;14.55;;;6.75;;
75854;SDS011;64502;59.976;30.316;2023-02-20T09:56:30;16.00;;;6.95;;
75854;SDS011;64502;59.976;30.316;2023-02-20T09:59:21;17.80;;;7.93;;
75854;SDS011;64502;59.976;30.316;2023-02-20T10:04:17;18.13;;;8.80;;
75854;SDS011;64502;59.976;30.316;2023-02-20T10:06:45;14.55;;;7.50;;
75854;SDS011;64502;59.976;30.316;2023-02-20T10:09:14;21.45;;;8.20;;
75854;SDS011;64502;59.976;30.316;2023-02-20T10:11:56;18.23;;;8.57;;
75854;SDS011;64502;59.976;30.316;2023-02-20T10:19:40;18.65;;;8.45;;
75854;SDS011;64502;59.976;30.316;2023-02-20T10:33:03;21.95;;;9.07;;
75854;SDS011;64502;59.976;30.316;2023-02-20T10:36:25;20.33;;;9.55;;
75854;SDS011;64502;59.976;30.316;2023-02-20T10:38:43;22.10;;;9.95;;
75854;SDS011;64502;59.976;30.316;2023-02-20T10:41:16;21.05;;;9.63;;
75854;SDS011;64502;59.976;30.316;2023-02-20T10:43:46;21.35;;;9.88;;
75854;SDS011;64502;59.976;30.316;2023-02-20T10:49:10;23.83;;;9.73;;
75854;SDS011;64502;59.976;30.316;2023-02-20T10:51:45;22.33;;;9.52;;
75854;SDS011;64502;59.976;30.316;2023-02-20T10:54:19;21.52;;;8.82;;
75854;SDS011;64502;59.976;30.316;2023-02-20T10:57:05;19.27;;;9.07;;
75854;SDS011;64502;59.976;30.316;2023-02-20T10:59:42;22.40;;;9.57;;
75854;SDS011;64502;59.976;30.316;2023-02-20T11:02:25;16.42;;;7.90;;
75854;SDS011;64502;59.976;30.316;2023-02-20T11:04:54;19.20;;;8.30;;
75854;SDS011;64502;59.976;30.316;2023-02-20T11:07:24;21.20;;;8.40;;
75854;SDS011;64502;59.976;30.316;2023-02-20T11:09:50;20.02;;;9.13;;
75854;SDS011;64502;59.976;30.316;2023-02-20T11:14:56;18.75;;;8.80;;
75854;SDS011;64502;59.976;30.316;2023-02-20T11:17:26;19.20;;;8.52;;
75854;SDS011;64502;59.976;30.316;2023-02-20T11:19:57;16.90;;;8.13;;
75854;SDS011;64502;59.976;30.316;2023-02-20T11:27:49;18.02;;;6.97;;
75854;SDS011;64502;59.976;30.316;2023-02-20T11:30:29;16.85;;;8.43;;
75854;SDS011;64502;59.976;30.316;2023-02-20T11:33:17;19.17;;;8.63;;
75854;SDS011;64502;59.976;30.316;2023-02-20T11:35:48;16.77;;;7.90;;
75854;SDS011;64502;59.976;30.316;2023-02-20T11:38:18;15.77;;;6.60;;
75854;SDS011;64502;59.976;30.316;2023-02-20T11:45:38;15.43;;;7.30;;
75854;SDS011;64502;59.976;30.316;2023-02-20T11:48:17;11.77;;;5.78;;
75854;SDS011;64502;59.976;30.316;2023-02-20T11:50:45;14.20;;;6.38;;
75854;SDS011;64502;59.976;30.316;2023-02-20T11:55:46;13.75;;;7.22;;
75854;SDS011;64502;59.976;30.316;2023-02-20T11:58:22;14.35;;;6.22;;
75854;SDS011;64502;59.976;30.316;2023-02-20T12:00:50;13.57;;;6.13;;
75854;SDS011;64502;59.976;30.316;2023-02-20T12:03:24;13.23;;;6.00;;
75854;SDS011;64502;59.976;30.316;2023-02-20T12:05:53;17.05;;;6.22;;
75854;SDS011;64502;59.976;30.316;2023-02-20T12:11:21;12.80;;;6.45;;
75854;SDS011;64502;59.976;30.316;2023-02-20T12:26:49;16.83;;;5.47;;
75854;SDS011;64502;59.976;30.316;2023-02-20T12:29:34;13.32;;;5.75;;
75854;SDS011;64502;59.976;30.316;2023-02-20T12:37:47;13.98;;;5.85;;
75854;SDS011;64502;59.976;30.316;2023-02-20T12:40:23;15.80;;;6.43;;
75854;SDS011;64502;59.976;30.316;2023-02-20T12:48:11;11.90;;;5.72;;
75854;SDS011;64502;59.976;30.316;2023-02-20T12:51:07;14.05;;;6.95;;
75854;SDS011;64502;59.976;30.316;2023-02-20T12:59:08;14.82;;;6.05;;
75854;SDS011;64502;59.976;30.316;2023-02-20T13:01:50;13.98;;;6.45;;
75854;SDS011;64502;59.976;30.316;2023-02-20T13:04:23;13.23;;;6.20;;
75854;SDS011;64502;59.976;30.316;2023-02-20T13:07:07;14.57;;;6.57;;
75854;SDS011;64502;59.976;30.316;2023-02-20T13:12:38;14.07;;;6.13;;
75854;SDS011;64502;59.976;30.316;2023-02-20T13:22:57;14.80;;;6.13;;
75854;SDS011;64502;59.976;30.316;2023-02-20T13:25:49;15.48;;;6.03;;
75854;SDS011;64502;59.976;30.316;2023-02-20T13:33:30;13.45;;;5.40;;
75854;SDS011;64502;59.976;30.316;2023-02-20T13:35:56;12.80;;;6.22;;
75854;SDS011;64502;59.976;30.316;2023-02-20T13:38:24;15.32;;;5.80;;
75854;SDS011;64502;59.976;30.316;2023-02-20T13:56:15;14.35;;;6.50;;
75854;SDS011;64502;59.976;30.316;2023-02-20T13:58:41;11.85;;;5.25;;
75854;SDS011;64502;59.976;30.316;2023-02-20T14:01:09;11.60;;;4.65;;
75854;SDS011;64502;59.976;30.316;2023-02-20T14:03:34;13.27;;;6.00;;
75854;SDS011;64502;59.976;30.316;2023-02-20T14:06:10;9.52;;;4.53;;
75854;SDS011;64502;59.976;30.316;2023-02-20T14:08:39;13.43;;;5.40;;
75854;SDS011;64502;59.976;30.316;2023-02-20T14:13:33;10.98;;;3.92;;
75854;SDS011;64502;59.976;30.316;2023-02-20T14:16:00;13.90;;;4.53;;
75854;SDS011;64502;59.976;30.316;2023-02-20T14:18:27;11.95;;;4.45;;
75854;SDS011;64502;59.976;30.316;2023-02-20T14:23:57;12.65;;;4.60;;
75854;SDS011;64502;59.976;30.316;2023-02-20T14:26:42;11.35;;;4.47;;
75854;SDS011;64502;59.976;30.316;2023-02-20T14:29:18;13.93;;;6.45;;
75854;SDS011;64502;59.976;30.316;2023-02-20T14:31:45;12.48;;;5.13;;
75854;SDS011;64502;59.976;30.316;2023-02-20T14:34:35;13.70;;;6.25;;
75854;SDS011;64502;59.976;30.316;2023-02-20T14:42:36;21.00;;;5.28;;
75854;SDS011;64502;59.976;30.316;2023-02-20T14:45:07;12.48;;;5.07;;
75854;SDS011;64502;59.976;30.316;2023-02-20T14:47:52;11.43;;;4.65;;
75854;SDS011;64502;59.976;30.316;2023-02-20T14:50:23;13.25;;;5.22;;
75854;SDS011;64502;59.976;30.316;2023-02-20T14:53:00;16.77;;;5.55;;
75854;SDS011;64502;59.976;30.316;2023-02-20T14:55:37;12.57;;;5.22;;
75854;SDS011;64502;59.976;30.316;2023-02-20T14:58:07;11.98;;;4.75;;
75854;SDS011;64502;59.976;30.316;2023-02-20T15:00:37;13.88;;;4.38;;
75854;SDS011;64502;59.976;30.316;2023-02-20T15:03:07;8.70;;;3.85;;
75854;SDS011;64502;59.976;30.316;2023-02-20T15:05:54;13.43;;;5.35;;
75854;SDS011;64502;59.976;30.316;2023-02-20T15:08:23;12.13;;;4.90;;
75854;SDS011;64502;59.976;30.316;2023-02-20T15:10:55;10.88;;;4.88;;
75854;SDS011;64502;59.976;30.316;2023-02-20T15:13:25;9.10;;;3.80;;
75854;SDS011;64502;59.976;30.316;2023-02-20T15:16:05;11.32;;;4.68;;
75854;SDS011;64502;59.976;30.316;2023-02-20T15:18:36;10.07;;;4.40;;
75854;SDS011;64502;59.976;30.316;2023-02-20T15:21:07;10.90;;;5.10;;
75854;SDS011;64502;59.976;30.316;2023-02-20T15:23:36;11.13;;;4.40;;
75854;SDS011;64502;59.976;30.316;2023-02-20T15:31:56;11.23;;;4.93;;
75854;SDS011;64502;59.976;30.316;2023-02-20T15:34:28;8.77;;;3.90;;
75854;SDS011;64502;59.976;30.316;2023-02-20T15:36:55;8.00;;;3.58;;
75854;SDS011;64502;59.976;30.316;2023-02-20T15:39:22;11.48;;;4.57;;
75854;SDS011;64502;59.976;30.316;2023-02-20T15:41:48;10.45;;;4.15;;
75854;SDS011;64502;59.976;30.316;2023-02-20T15:44:14;10.27;;;4.57;;
75854;SDS011;64502;59.976;30.316;2023-02-20T15:46:40;10.70;;;3.90;;
75854;SDS011;64502;59.976;30.316;2023-02-20T15:49:05;10.60;;;4.05;;
75854;SDS011;64502;59.976;30.316;2023-02-20T15:51:38;7.72;;;3.60;;
75854;SDS011;64502;59.976;30.316;2023-02-20T15:54:06;12.95;;;4.22;;
75854;SDS011;64502;59.976;30.316;2023-02-20T15:56:39;9.85;;;4.20;;
75854;SDS011;64502;59.976;30.316;2023-02-20T15:59:06;9.32;;;3.78;;
75854;SDS011;64502;59.976;30.316;2023-02-20T16:01:33;9.18;;;3.78;;
75854;SDS011;64502;59.976;30.316;2023-02-20T16:03:59;10.00;;;4.30;;
75854;SDS011;64502;59.976;30.316;2023-02-20T16:06:25;9.25;;;4.18;;
75854;SDS011;64502;59.976;30.316;2023-02-20T16:08:51;10.85;;;4.60;;
75854;SDS011;64502;59.976;30.316;2023-02-20T16:11:18;12.55;;;5.28;;
75854;SDS011;64502;59.976;30.316;2023-02-20T16:13:47;13.88;;;4.82;;
75854;SDS011;64502;59.976;30.316;2023-02-20T16:16:32;14.32;;;5.32;;
75854;SDS011;64502;59.976;30.316;2023-02-20T16:19:00;15.02;;;4.80;;
75854;SDS011;64502;59.976;30.316;2023-02-20T16:21:26;12.93;;;4.97;;
75854;SDS011;64502;59.976;30.316;2023-02-20T16:23:52;12.00;;;4.90;;
75854;SDS011;64502;59.976;30.316;2023-02-20T16:26:21;9.48;;;4.53;;
75854;SDS011;64502;59.976;30.316;2023-02-20T16:28:51;12.50;;;4.75;;
75854;SDS011;64502;59.976;30.316;2023-02-20T16:31:20;12.48;;;4.65;;
75854;SDS011;64502;59.976;30.316;2023-02-20T16:33:46;12.02;;;5.47;;
75854;SDS011;64502;59.976;30.316;2023-02-20T16:36:13;18.15;;;5.25;;
75854;SDS011;64502;59.976;30.316;2023-02-20T16:38:39;12.50;;;5.18;;
75854;SDS011;64502;59.976;30.316;2023-02-20T16:41:04;13.90;;;4.78;;
75854;SDS011;64502;59.976;30.316;2023-02-20T16:43:30;15.13;;;5.18;;
75854;SDS011;64502;59.976;30.316;2023-02-20T16:45:56;11.25;;;5.78;;
75854;SDS011;64502;59.976;30.316;2023-02-20T16:48:22;10.95;;;4.07;;
75854;SDS011;64502;59.976;30.316;2023-02-20T16:50:48;12.05;;;4.22;;
75854;SDS011;64502;59.976;30.316;2023-02-20T16:53:17;9.48;;;4.13;;
75854;SDS011;64502;59.976;30.316;2023-02-20T16:55:44;9.88;;;4.15;;
75854;SDS011;64502;59.976;30.316;2023-02-20T16:58:11;13.60;;;5.05;;
75854;SDS011;64502;59.976;30.316;2023-02-20T17:00:39;9.65;;;4.03;;
75854;SDS011;64502;59.976;30.316;2023-02-20T17:03:06;11.50;;;4.22;;
75854;SDS011;64502;59.976;30.316;2023-02-20T17:05:36;13.68;;;4.68;;
75854;SDS011;64502;59.976;30.316;2023-02-20T17:08:03;11.38;;;3.92;;
75854;SDS011;64502;59.976;30.316;2023-02-20T17:10:30;11.70;;;3.97;;
75854;SDS011;64502;59.976;30.316;2023-02-20T17:12:58;15.43;;;5.32;;
75854;SDS011;64502;59.976;30.316;2023-02-20T17:15:24;14.02;;;5.40;;
75854;SDS011;64502;59.976;30.316;2023-02-20T17:17:51;12.73;;;4.80;;
75854;SDS011;64502;59.976;30.316;2023-02-20T17:20:19;10.25;;;3.72;;
75854;SDS011;64502;59.976;30.316;2023-02-20T17:22:46;10.27;;;4.57;;
75854;SDS011;64502;59.976;30.316;2023-02-20T17:25:13;15.52;;;5.57;;